Stormwatcher's Retreat Logo




                  Temp     Hi    Low   Out    Dew  Wind  Wind   Wind    Hi    Hi   Wind   Heat    THW   THSW                Rain  Solar   Solar Hi Solar   UV    UV    Hi     Heat    Cool    In     In    In     In     In   In Air          Wind  Wind    ISS   Arc.
  Date    Time     Out   Temp   Temp   Hum    Pt. Speed   Dir    Run Speed   Dir  Chill  Index  Index  Index   Bar    Rain  Rate   Rad.  Energy    Rad.  Index  Dose   UV     D-D     D-D    Temp   Hum    Dew   Heat    EMC Density     ET   Samp   Tx   Recept  Int.
------------------------------------------------------------------------------------------------------------------------------------------------------------------------------------------------------------------------------------------------------------------------
 5/19/18 12:10a   54.3   54.3   54.3    81   48.6   0.0     N   0.00   2.0     N   54.3   54.0   54.0   51.2  30.063  0.00  0.00     0     0.00      0     0.0  0.00   0.0   0.074   0.000   70.9    51   51.9   69.6   9.43  .0742    0.000   212    5    100.0   10 
 5/19/18 12:20a   54.4   54.4   54.3    81   48.7   1.0     N   0.17   3.0     N   54.4   54.1   54.1   51.3  30.065  0.00  0.00     0     0.00      0     0.0  0.00   0.0   0.074   0.000   70.9    51   51.9   69.6   9.43  .0742    0.000   212    5    100.0   10 
 5/19/18 12:30a   54.4   54.4   54.3    81   48.7   0.0     N   0.00   2.0     N   54.4   54.1   54.1   51.3  30.064  0.00  0.00     0     0.00      0     0.0  0.00   0.0   0.074   0.000   70.9    51   51.9   69.6   9.43  .0742    0.000   212    5    100.0   10 
 5/19/18 12:40a   54.3   54.4   54.3    82   48.9   0.0   ---   0.00   0.0   ---   54.3   54.1   54.1   51.3  30.064  0.00  0.00     0     0.00      0     0.0  0.00   0.0   0.074   0.000   70.9    51   51.9   69.6   9.43  .0742    0.000   210    5    100.0   10 
 5/19/18 12:50a   54.3   54.4   54.3    82   48.9   1.0     N   0.17   3.0     N   54.3   54.1   54.1   51.3  30.062  0.00  0.00     0     0.00      0     0.0  0.00   0.0   0.074   0.000   70.8    51   51.8   69.4   9.43  .0742    0.000   208    5    100.0   10 
 5/19/18  1:00a   54.4   54.4   54.3    82   49.0   0.0     N   0.00   2.0     N   54.4   54.2   54.2   51.5  30.058  0.00  0.00     0     0.00      0     0.0  0.00   0.0   0.074   0.000   70.8    51   51.8   69.4   9.43  .0742    0.001   211    5    100.0   10 
 5/19/18  1:10a   54.4   54.4   54.3    82   49.0   0.0     N   0.00   4.0     N   54.4   54.2   54.2   51.5  30.057  0.00  0.00     0     0.00      0     0.0  0.00   0.0   0.074   0.000   70.7    51   51.7   69.3   9.44  .0742    0.000   210    5    100.0   10 
 5/19/18  1:20a   54.4   54.4   54.3    82   49.0   1.0     N   0.17   3.0     N   54.4   54.2   54.2   51.5  30.058  0.00  0.00     0     0.00      0     0.0  0.00   0.0   0.074   0.000   70.7    51   51.7   69.3   9.44  .0742    0.000   212    5    100.0   10 
 5/19/18  1:30a   54.4   54.4   54.4    82   49.0   0.0   ---   0.00   0.0   ---   54.4   54.2   54.2   51.5  30.058  0.00  0.00     0     0.00      0     0.0  0.00   0.0   0.074   0.000   70.7    51   51.7   69.3   9.44  .0742    0.000   212    5    100.0   10 
 5/19/18  1:40a   54.4   54.4   54.4    82   49.0   0.0   ---   0.00   0.0   ---   54.4   54.2   54.2   51.5  30.058  0.00  0.00     0     0.00      0     0.0  0.00   0.0   0.074   0.000   70.6    51   51.6   69.2   9.44  .0742    0.000   210    5    100.0   10 
 5/19/18  1:50a   54.4   54.4   54.4    82   49.0   0.0   ---   0.00   0.0   ---   54.4   54.2   54.2   51.5  30.056  0.00  0.00     0     0.00      0     0.0  0.00   0.0   0.074   0.000   70.6    51   51.6   69.2   9.44  .0742    0.000   210    5    100.0   10 
 5/19/18  2:00a   54.4   54.4   54.4    83   49.3   0.0   ---   0.00   0.0   ---   54.4   54.2   54.2   51.5  30.056  0.00  0.00     0     0.00      0     0.0  0.00   0.0   0.074   0.000   70.5    51   51.5   69.0   9.44  .0742    0.001   213    5    100.0   10 
 5/19/18  2:10a   54.2   54.4   54.2    83   49.1   1.0     N   0.17   3.0     N   54.2   54.0   54.0   51.3  30.056  0.00  0.00     0     0.00      0     0.0  0.00   0.0   0.075   0.000   70.5    51   51.5   69.0   9.44  .0742    0.000   212    5    100.0   10 
 5/19/18  2:20a   54.2   54.3   54.2    83   49.1   0.0     N   0.00   2.0     N   54.2   54.0   54.0   51.3  30.055  0.00  0.00     0     0.00      0     0.0  0.00   0.0   0.075   0.000   70.5    51   51.5   69.0   9.44  .0742    0.000   209    5    100.0   10 
 5/19/18  2:30a   54.2   54.3   54.2    83   49.1   0.0   ---   0.00   0.0   ---   54.2   54.0   54.0   51.3  30.055  0.00  0.00     0     0.00      0     0.0  0.00   0.0   0.075   0.000   70.5    51   51.5   69.0   9.44  .0742    0.000   213    5    100.0   10 
 5/19/18  2:40a   54.3   54.3   54.2    83   49.2   0.0     N   0.00   3.0     N   54.3   54.1   54.1   51.4  30.054  0.00  0.00     0     0.00      0     0.0  0.00   0.0   0.074   0.000   70.5    50   51.0   68.9   9.25  .0742    0.000   211    5    100.0   10 
 5/19/18  2:50a   54.2   54.3   54.2    83   49.1   0.0   ---   0.00   0.0   ---   54.2   54.0   54.0   51.3  30.051  0.00  0.00     0     0.00      0     0.0  0.00   0.0   0.075   0.000   70.4    50   50.9   68.8   9.25  .0743    0.000   209    5    100.0   10 
 5/19/18  3:00a   54.1   54.2   54.1    83   49.1   0.0   ---   0.00   0.0   ---   54.1   53.9   53.9   51.2  30.050  0.00  0.00     0     0.00      0     0.0  0.00   0.0   0.076   0.000   70.4    51   51.4   68.9   9.44  .0742    0.001   210    5    100.0   10 
 5/19/18  3:10a   54.1   54.1   54.0    84   49.4   0.0   ---   0.00   0.0   ---   54.1   54.0   54.0   51.3  30.050  0.00  0.00     0     0.00      0     0.0  0.00   0.0   0.076   0.000   70.4    51   51.4   68.9   9.44  .0742    0.000   212    5    100.0   10 
 5/19/18  3:20a   54.1   54.1   54.0    84   49.4   0.0   ---   0.00   0.0   ---   54.1   54.0   54.0   51.3  30.049  0.00  0.00     0     0.00      0     0.0  0.00   0.0   0.076   0.000   70.4    50   50.9   68.8   9.25  .0743    0.000   210    5    100.0   10 
 5/19/18  3:30a   54.1   54.1   54.0    84   49.4   0.0   ---   0.00   0.0   ---   54.1   54.0   54.0   51.3  30.046  0.00  0.00     0     0.00      0     0.0  0.00   0.0   0.076   0.000   70.3    50   50.8   68.7   9.25  .0743    0.000   213    5    100.0   10 
 5/19/18  3:40a   54.0   54.1   54.0    84   49.3   0.0   ---   0.00   0.0   ---   54.0   53.9   53.9   51.2  30.047  0.00  0.00     0     0.00      0     0.0  0.00   0.0   0.076   0.000   70.2    50   50.7   68.6   9.25  .0743    0.000   211    5    100.0   10 
 5/19/18  3:50a   54.0   54.0   54.0    84   49.3   0.0   ---   0.00   0.0   ---   54.0   53.9   53.9   51.2  30.045  0.00  0.00     0     0.00      0     0.0  0.00   0.0   0.076   0.000   70.2    50   50.7   68.6   9.25  .0743    0.000   210    5    100.0   10 
 5/19/18  4:00a   54.0   54.0   54.0    84   49.3   0.0   ---   0.00   0.0   ---   54.0   53.9   53.9   51.2  30.045  0.00  0.00     0     0.00      0     0.0  0.00   0.0   0.076   0.000   70.2    50   50.7   68.6   9.25  .0743    0.000   213    5    100.0   10 
 5/19/18  4:10a   54.0   54.0   53.9    84   49.3   0.0   ---   0.00   0.0   ---   54.0   53.9   53.9   51.2  30.045  0.00  0.00     0     0.00      0     0.0  0.00   0.0   0.076   0.000   70.1    50   50.6   68.4   9.25  .0743    0.000   210    5    100.0   10 
 5/19/18  4:20a   53.9   54.0   53.9    84   49.2   0.0   ---   0.00   0.0   ---   53.9   53.8   53.8   51.1  30.044  0.00  0.00     0     0.00      0     0.0  0.00   0.0   0.077   0.000   70.1    50   50.6   68.4   9.25  .0743    0.000   212    5    100.0   10 
 5/19/18  4:30a   54.0   54.0   53.9    85   49.6   0.0   ---   0.00   0.0   ---   54.0   53.9   53.9   51.2  30.044  0.00  0.00     0     0.00      0     0.0  0.00   0.0   0.076   0.000   70.1    50   50.6   68.4   9.25  .0743    0.000   213    5    100.0   10 
 5/19/18  4:40a   54.0   54.1   54.0    85   49.6   0.0   ---   0.00   0.0   ---   54.0   53.9   53.9   51.2  30.045  0.00  0.00     0     0.00      0     0.0  0.00   0.0   0.076   0.000   70.1    50   50.6   68.4   9.25  .0743    0.000   209    5    100.0   10 
 5/19/18  4:50a   54.0   54.0   54.0    84   49.3   0.0   ---   0.00   0.0   ---   54.0   53.9   53.9   51.2  30.046  0.00  0.00     0     0.00      0     0.0  0.00   0.0   0.076   0.000   70.0    50   50.5   68.3   9.25  .0743    0.000   209    5    100.0   10 
 5/19/18  5:00a   54.0   54.0   54.0    85   49.6   0.0   ---   0.00   0.0   ---   54.0   53.9   53.9   51.2  30.044  0.00  0.00     0     0.00      0     0.0  0.00   0.0   0.076   0.000   70.0    50   50.5   68.3   9.25  .0743    0.000   213    5    100.0   10 
 5/19/18  5:10a   54.1   54.1   54.0    85   49.7   0.0   ---   0.00   0.0   ---   54.1   54.0   54.0   51.3  30.041  0.00  0.00     0     0.00      0     0.0  0.00   0.0   0.076   0.000   70.0    50   50.5   68.3   9.25  .0743    0.000   212    5    100.0   10 
 5/19/18  5:20a   54.0   54.0   54.0    85   49.6   0.0   ---   0.00   0.0   ---   54.0   53.9   53.9   51.2  30.040  0.00  0.00     0     0.00      0     0.0  0.00   0.0   0.076   0.000   69.9    50   50.4   68.2   9.25  .0743    0.000   212    5    100.0   10 
 5/19/18  5:30a   53.9   54.0   53.8    85   49.5   1.0     N   0.17   3.0     N   53.9   53.8   53.8   51.1  30.038  0.00  0.00     0     0.00      0     0.0  0.00   0.0   0.077   0.000   69.9    50   50.4   68.2   9.25  .0743    0.000   212    5    100.0   10 
 5/19/18  5:40a   53.7   53.9   53.7    85   49.3   2.0     N   0.33   5.0     N   53.7   53.6   53.6   50.9  30.036  0.00  0.00     0     0.00      0     0.0  0.00   0.0   0.078   0.000   69.9    50   50.4   68.2   9.25  .0743    0.000   210    5    100.0   10 
 5/19/18  5:50a   53.5   53.7   53.5    86   49.4   3.0     N   0.50   6.0     N   53.5   53.4   53.4   50.7  30.038  0.00  0.00     1     0.01      5     0.0  0.00   0.0   0.080   0.000   69.9    50   50.4   68.2   9.25  .0743    0.000   212    5    100.0   10 
 5/19/18  6:00a   53.4   53.5   53.4    86   49.3   3.0     N   0.50   6.0     N   53.4   53.3   53.3   50.7  30.037  0.00  0.00     5     0.07      5     0.0  0.00   0.0   0.081   0.000   69.8    50   50.3   68.2   9.25  .0743    0.000   213    5    100.0   10 
 5/19/18  6:10a   53.3   53.4   53.3    86   49.2   3.0     N   0.50   6.0     N   53.3   53.2   53.2   50.7  30.037  0.00  0.00     9     0.13     11     0.0  0.00   0.0   0.081   0.000   69.8    50   50.3   68.2   9.25  .0743    0.000   210    5    100.0   10 
 5/19/18  6:20a   53.4   53.5   53.3    86   49.3   3.0     N   0.50   6.0     N   53.4   53.3   53.3   50.9  30.040  0.00  0.00    17     0.24     19     0.0  0.00   0.0   0.081   0.000   69.7    50   50.2   68.1   9.26  .0743    0.000   211    5    100.0   10 
 5/19/18  6:30a   53.6   53.6   53.4    86   49.5   3.0     N   0.50   5.0     N   53.6   53.5   53.5   51.2  30.040  0.00  0.00    21     0.30     23     0.0  0.00   0.0   0.079   0.000   69.7    50   50.2   68.1   9.26  .0743    0.000   211    5    100.0   10 
 5/19/18  6:40a   53.7   53.7   53.6    86   49.6   2.0     N   0.33   5.0     N   53.7   53.6   53.6   51.5  30.041  0.00  0.00    28     0.40     33     0.0  0.00   0.0   0.078   0.000   69.7    50   50.2   68.1   9.26  .0744    0.000   211    5    100.0   10 
 5/19/18  6:50a   53.9   53.9   53.7    87   50.1   1.0     N   0.17   4.0     N   53.9   53.9   53.9   52.0  30.043  0.00  0.00    37     0.53     40     0.0  0.00   0.0   0.077   0.000   69.7    50   50.2   68.1   9.26  .0744    0.000   212    5    100.0   10 
 5/19/18  7:00a   54.1   54.1   53.9    87   50.3   1.0     N   0.17   4.0     N   54.1   54.1   54.1   52.5  30.042  0.00  0.00    47     0.67     54     0.0  0.00   0.0   0.076   0.000   69.7    50   50.2   68.1   9.26  .0744    0.001   212    5    100.0   10 
 5/19/18  7:10a   54.4   54.4   54.1    87   50.6   1.0     N   0.17   3.0     N   54.4   54.4   54.4   53.1  30.044  0.00  0.00    62     0.89     67     0.0  0.00   0.0   0.074   0.000   69.6    50   50.1   68.0   9.26  .0744    0.000   210    5    100.0   10 
 5/19/18  7:20a   54.6   54.6   54.4    86   50.5   1.0     N   0.17   4.0     N   54.6   54.5   54.5   53.5  30.044  0.00  0.00    75     1.08     83     0.0  0.00   0.0   0.072   0.000   69.6    50   50.1   68.0   9.26  .0744    0.000   213    5    100.0   10 
 5/19/18  7:30a   55.0   55.0   54.6    87   51.2   0.0     N   0.00   2.0     N   55.0   55.0   55.0   57.0  30.047  0.00  0.00    93     1.33     98     0.0  0.00   0.0   0.069   0.000   69.7    51   50.8   68.2   9.46  .0743    0.000   211    5    100.0   10 
 5/19/18  7:40a   55.0   55.1   55.0    86   50.9   0.0     N   0.00   2.0     N   55.0   54.9   54.9   57.2  30.051  0.00  0.00    99     1.42    102     0.0  0.00   0.0   0.069   0.000   69.7    51   50.8   68.2   9.46  .0744    0.000   210    5    100.0   10 
 5/19/18  7:50a   54.7   55.0   54.7    87   50.9   0.0   ---   0.00   0.0   ---   54.7   54.7   54.7   57.6  30.051  0.00  0.00   115     1.65    125     0.0  0.00   0.0   0.072   0.000   69.8    51   50.9   68.2   9.45  .0743    0.000   209    5    100.0   10 
 5/19/18  8:00a   54.8   54.8   54.7    88   51.3   0.0   ---   0.00   0.0   ---   54.8   54.8   54.8   59.2  30.050  0.00  0.00   156     2.24    179     0.0  0.00   0.0   0.071   0.000   69.8    51   50.9   68.2   9.45  .0743    0.002   212    5    100.0   10 
 5/19/18  8:10a   54.8   55.0   54.8    87   51.0   0.0   ---   0.00   0.0   ---   54.8   54.8   54.8   60.6  30.055  0.00  0.00   198     2.84    207     0.0  0.00   0.0   0.071   0.000   69.9    51   50.9   68.3   9.45  .0743    0.000   211    5    100.0   10 
 5/19/18  8:20a   55.1   55.1   54.7    87   51.3   0.0   ---   0.00   0.0   ---   55.1   55.1   55.1   61.4  30.057  0.00  0.00   219     3.14    232     0.0  0.00   0.0   0.069   0.000   69.9    51   50.9   68.3   9.45  .0743    0.000   212    5    100.0   10 
 5/19/18  8:30a   55.1   55.1   55.0    87   51.3   0.0   ---   0.00   0.0   ---   55.1   55.1   55.1   61.4  30.058  0.00  0.00   224     3.21    234     0.0  0.00   0.0   0.069   0.000   70.0    51   51.0   68.4   9.45  .0743    0.000   212    5    100.0   10 
 5/19/18  8:40a   54.8   55.2   54.8    87   51.0   2.0     N   0.33   6.0     N   54.8   54.8   54.8   60.7  30.062  0.00  0.00   218     3.13    236     0.0  0.00   0.0   0.071   0.000   70.0    51   51.0   68.4   9.45  .0743    0.000   210    5    100.0   10 
 5/19/18  8:50a   54.4   54.8   54.4    88   50.9   4.0     N   0.67   6.0     N   53.9   54.4   53.9   59.6  30.058  0.00  0.00   220     3.15    257     0.0  0.00   0.0   0.074   0.000   70.1    51   51.1   68.5   9.45  .0743    0.000   213    5    100.0   10 
 5/19/18  9:00a   54.5   54.5   54.3    89   51.3   4.0     N   0.67   6.0     N   54.1   54.6   54.2   62.2  30.059  0.00  0.00   316     4.53    427     0.0  0.00   0.0   0.073   0.000   70.1    51   51.1   68.5   9.45  .0743    0.005   213    5    100.0   10 
 5/19/18  9:10a   54.3   54.5   54.3    88   50.8   5.0     N   0.83   8.0     N   53.3   54.3   53.3   61.4  30.060  0.00  0.00   330     4.73    339     0.0  0.00   0.0   0.074   0.000   70.2    51   51.2   68.6   9.45  .0743    0.000   210    5    100.0   10 
 5/19/18  9:20a   54.4   54.4   54.3    89   51.2   4.0     N   0.67   8.0     N   53.9   54.5   54.0   62.6  30.060  0.00  0.00   362     5.19    418     0.0  0.00   0.0   0.074   0.000   70.3    51   51.3   68.8   9.44  .0743    0.000   212    5    100.0   10 
 5/19/18  9:30a   54.7   54.7   54.4    89   51.5   4.0     N   0.67   6.0     N   54.3   54.8   54.4   64.0  30.061  0.00  0.00   430     6.16    490     0.0  0.00   0.0   0.072   0.000   70.3    51   51.3   68.8   9.44  .0743    0.000   212    5    100.0   10 
 5/19/18  9:40a   54.9   54.9   54.7    89   51.7   4.0     N   0.67   6.0     N   54.5   55.0   54.6   64.1  30.062  0.00  0.00   436     6.25    475     0.0  0.00   0.0   0.070   0.000   70.4    51   51.4   68.9   9.44  .0743    0.000   212    5    100.0   10 
 5/19/18  9:50a   54.9   55.2   54.9    88   51.4   4.0     N   0.67   6.0     N   54.5   54.9   54.5   64.2  30.061  0.00  0.00   456     6.54    619     0.0  0.00   0.0   0.070   0.000   70.4    51   51.4   68.9   9.44  .0743    0.000   211    5    100.0   10 
 5/19/18 10:00a   54.8   55.0   54.8    88   51.3   4.0     N   0.67   6.0     N   54.4   54.8   54.4   63.0  30.061  0.00  0.00   402     5.76    466     0.0  0.00   0.0   0.071   0.000   70.5    51   51.5   69.0   9.44  .0742    0.008   213    5    100.0   10 
 5/19/18 10:10a   55.1   55.1   54.8    89   51.9   4.0     N   0.67   8.0     N   54.7   55.2   54.8   64.9  30.061  0.00  0.00   515     7.38    598     0.0  0.00   0.0   0.069   0.000   70.5    51   51.5   69.0   9.44  .0742    0.000   212    5    100.0   10 
 5/19/18 10:20a   55.1   55.4   55.1    88   51.6   4.0     N   0.67   8.0     N   54.7   55.1   54.7   63.3  30.058  0.00  0.00   426     6.11    520     0.1  0.01   0.6   0.069   0.000   70.6    51   51.6   69.2   9.44  .0742    0.000   212    5    100.0   10 
 5/19/18 10:30a   55.4   55.5   55.1    89   52.2   3.0     N   0.50   5.0     N   55.4   55.5   55.5   64.8  30.059  0.00  0.00   471     6.75    547     0.0  0.00   0.0   0.067   0.000   70.7    51   51.7   69.3   9.44  .0742    0.000   213    5    100.0   10 
 5/19/18 10:40a   55.5   55.6   55.4    88   52.0   3.0     N   0.50   4.0     N   55.5   55.5   55.5   66.2  30.056  0.00  0.00   611     8.76    731     0.9  0.06   1.4   0.066   0.000   70.8    51   51.8   69.4   9.43  .0742    0.000   213    5    100.0   10 
 5/19/18 10:50a   55.7   55.7   55.5    89   52.5   2.0     N   0.33   4.0     N   55.7   55.8   55.8   65.8  30.058  0.00  0.00   544     7.80    605     0.3  0.02   1.7   0.065   0.000   70.8    51   51.8   69.4   9.43  .0742    0.000   212    5    100.0   10 
 5/19/18 11:00a   56.0   56.0   55.7    89   52.8   2.0     N   0.33   3.0     N   56.0   56.1   56.1   66.7  30.060  0.00  0.00   623     8.93    715     1.3  0.09   2.5   0.063   0.000   70.8    51   51.8   69.4   9.43  .0742    0.011   211    5    100.0   10 
 5/19/18 11:10a   55.9   56.1   55.9    88   52.4   2.0     N   0.33   4.0     N   55.9   55.9   55.9   67.2  30.058  0.00  0.00   809    11.60    907     2.9  0.21   3.4   0.063   0.000   70.9    51   51.9   69.6   9.43  .0742    0.000   212    5    100.0   10 
 5/19/18 11:20a   56.2   56.2   55.9    89   53.0   2.0     N   0.33   3.0     N   56.2   56.3   56.3   67.0  30.057  0.00  0.00   728    10.44    788     3.1  0.22   3.7   0.061   0.000   71.0    51   52.0   69.7   9.43  .0741    0.000   213    5    100.0   10 
 5/19/18 11:30a   57.0   57.0   56.3    88   53.5   2.0     N   0.33   3.0     N   57.0   57.0   57.0   68.9  30.059  0.00  0.00   882    12.64   1000     4.0  0.29   4.6   0.056   0.000   71.0    51   52.0   69.7   9.43  .0742    0.000   210    5    100.0   10 
 5/19/18 11:40a   57.0   57.2   57.0    87   53.2   2.0     N   0.33   4.0     N   57.0   57.0   57.0   68.0  30.060  0.00  0.00   714    10.24    758     3.9  0.28   4.6   0.056   0.000   71.1    51   52.0   69.8   9.43  .0741    0.000   211    5    100.0   10 
 5/19/18 11:50a   57.1   57.1   56.9    87   53.3   2.0     N   0.33   3.0     N   57.1   57.1   57.1   67.8  30.059  0.00  0.00   656     9.40    772     3.0  0.21   3.5   0.055   0.000   71.1    51   52.0   69.8   9.43  .0741    0.000   214    5    100.0   10 
 5/19/18 12:00p   57.2   57.6   57.1    86   53.0   2.0     N   0.33   3.0     N   57.2   57.1   57.1   66.8  30.059  0.00  0.00   562     8.06    673     1.9  0.14   2.5   0.054   0.000   71.2    51   52.1   70.0   9.43  .0741    0.015   211    5    100.0   10 
 5/19/18 12:10p   58.2   58.2   57.2    87   54.3   4.0     N   0.67   9.0     N   58.2   58.2   58.2   66.6  30.059  0.00  0.00   467     6.69    659     0.9  0.06   3.3   0.047   0.000   71.2    51   52.1   70.0   9.43  .0741    0.000   212    5    100.0   10 
 5/19/18 12:20p   59.1   59.1   58.3    87   55.2   5.0     N   0.83   9.0     N   58.9   59.2   59.0   69.0  30.061  0.00  0.00   580     8.31    840     2.2  0.16   3.5   0.041   0.000   71.2    51   52.1   70.0   9.43  .0741    0.000   213    5    100.0   10 
 5/19/18 12:30p   60.2   60.2   59.1    86   56.0   5.0     N   0.83   9.0     N   60.2   60.4   60.4   71.6  30.058  0.00  0.00   741    10.62    828     3.2  0.23   3.5   0.033   0.000   71.2    51   52.1   70.0   9.43  .0741    0.000   211    5    100.0   10 
 5/19/18 12:40p   60.0   60.5   60.0    84   55.2   5.0     N   0.83   8.0     N   60.0   60.1   60.1   71.3  30.056  0.00  0.00   738    10.58    816     3.3  0.24   3.9   0.035   0.000   71.2    51   52.1   70.0   9.43  .0741    0.000   210    5    100.0   10 
 5/19/18 12:50p   60.0   60.1   59.6    85   55.5   5.0     N   0.83   9.0     N   60.0   60.1   60.1   71.1  30.058  0.00  0.00   817    11.71    893     3.7  0.26   4.0   0.035   0.000   71.2    51   52.1   70.0   9.43  .0741    0.000   212    5    100.0   10 
 5/19/18  1:00p   59.6   60.0   59.6    84   54.8   5.0     N   0.83   9.0     N   59.5   59.6   59.5   70.4  30.059  0.00  0.00   693     9.93    826     2.3  0.16   3.5   0.038   0.000   71.3    52   52.8   70.2   9.62  .0741    0.014   212    5    100.0   10 
 5/19/18  1:10p   57.1   59.6   57.1    85   52.6   8.0     N   1.33  12.0     N   55.0   57.0   54.9   61.2  30.059  0.00  0.00   377     5.40    462     0.1  0.01   0.9   0.055   0.000   71.3    52   52.8   70.2   9.62  .0741    0.000   210    5    100.0   10 
 5/19/18  1:20p   57.7   57.7   56.8    88   54.2   8.0     N   1.33  13.0     N   55.7   57.7   55.7   65.0  30.058  0.00  0.00   580     8.31    698     1.6  0.11   2.7   0.051   0.000   71.4    52   52.9   70.4   9.62  .0741    0.000   214    5    100.0   10 
 5/19/18  1:30p   57.3   57.8   57.3    86   53.1   8.0     N   1.33  12.0     N   55.3   57.2   55.2   63.3  30.059  0.00  0.00   492     7.05    582     0.8  0.06   1.9   0.053   0.000   71.5    52   52.9   70.5   9.62  .0740    0.000   212    5    100.0   10 
 5/19/18  1:40p   57.6   57.6   57.3    87   53.8   7.0     N   1.17  11.0     N   56.3   57.6   56.3   63.6  30.056  0.00  0.00   424     6.08    492     0.2  0.01   0.8   0.051   0.000   71.5    52   52.9   70.5   9.62  .0740    0.000   211    5    100.0   10 
 5/19/18  1:50p   57.8   58.1   57.7    85   53.3   8.0     N   1.33  13.0     N   55.9   57.7   55.8   63.2  30.055  0.00  0.00   445     6.38    485     0.3  0.02   0.8   0.050   0.000   71.6    52   53.0   70.7   9.62  .0740    0.000   211    5    100.0   10 
 5/19/18  2:00p   57.6   57.8   57.5    86   53.4   7.0     N   1.17  12.0     N   56.3   57.5   56.2   63.2  30.058  0.00  0.00   407     5.83    439     0.0  0.00   0.0   0.051   0.000   71.6    52   53.0   70.7   9.62  .0740    0.010   212    5    100.0   10 
 5/19/18  2:10p   58.2   58.2   57.4    87   54.3   8.0     N   1.33  12.0     N   56.3   58.2   56.3   64.5  30.055  0.00  0.00   495     7.10    543     0.5  0.04   1.0   0.047   0.000   71.7    52   53.1   70.8   9.62  .0740    0.000   211    5    100.0   10 
 5/19/18  2:20p   58.4   58.4   58.2    85   53.9  10.0     N   1.67  13.0     N   55.1   58.3   55.0   63.3  30.054  0.00  0.00   547     7.84    629     1.0  0.07   1.4   0.046   0.000   71.7    52   53.1   70.8   9.62  .0740    0.000   213    5    100.0   10 
 5/19/18  2:30p   58.4   58.6   58.3    84   53.6   9.0     N   1.50  14.0     N   55.8   58.3   55.7   63.0  30.051  0.00  0.00   454     6.51    501     0.1  0.01   0.9   0.046   0.000   71.7    52   53.1   70.8   9.62  .0740    0.000   211    5    100.0   10 
 5/19/18  2:40p   59.2   59.2   58.4    85   54.7   8.0     N   1.33  13.0     N   57.5   59.2   57.5   66.5  30.051  0.00  0.00   552     7.91    675     0.6  0.04   1.4   0.040   0.000   71.7    52   53.1   70.8   9.62  .0740    0.000   210    5    100.0   10 
 5/19/18  2:50p   59.1   59.3   59.1    84   54.3   9.0     N   1.50  13.0     N   56.6   59.1   56.6   65.5  30.047  0.00  0.00   558     8.00    636     0.6  0.04   1.2   0.041   0.000   71.8    52   53.2   71.0   9.61  .0740    0.000   211    5    100.0   10 
 5/19/18  3:00p   59.1   59.1   59.1    83   53.9   8.0     N   1.33  13.0     N   57.4   59.0   57.3   66.6  30.049  0.00  0.00   568     8.14    603     0.1  0.01   0.7   0.041   0.000   71.8    52   53.2   71.0   9.61  .0740    0.012   210    5    100.0   10 
 5/19/18  3:10p   59.1   59.2   59.1    83   53.9   9.0     N   1.50  13.0     N   56.6   59.0   56.5   64.2  30.044  0.00  0.00   465     6.67    559     0.0  0.00   0.0   0.041   0.000   71.8    51   52.7   70.9   9.41  .0740    0.000   212    5    100.0   10 
 5/19/18  3:20p   58.4   59.1   58.4    84   53.6   9.0     N   1.50  14.0     N   55.8   58.3   55.7   61.8  30.047  0.00  0.00   366     5.25    399     0.0  0.00   0.0   0.046   0.000   71.8    52   53.2   71.0   9.61  .0740    0.000   211    5    100.0   10 
 5/19/18  3:30p   58.5   58.6   58.4    83   53.4   7.0     N   1.17  12.0     N   57.4   58.4   57.3   64.3  30.047  0.00  0.00   380     5.45    410     0.0  0.00   0.0   0.045   0.000   71.7    52   53.1   70.8   9.62  .0740    0.000   212    5    100.0   10 
 5/19/18  3:40p   57.6   58.4   57.5    84   52.8   6.0     N   1.00  12.0     N   56.7   57.5   56.6   62.7  30.045  0.00  0.00   324     4.64    376     0.0  0.00   0.0   0.051   0.000   71.7    52   53.1   70.8   9.62  .0740    0.000   213    5    100.0   10 
 5/19/18  3:50p    ---   57.8   57.6   ---    ---   0.0   ---   0.00   0.0   ---    ---    ---    ---    ---  30.043  0.00  0.00   269     3.86    269     0.0  0.00   ---     ---     ---   71.7    52   53.1   70.8   9.62  .0740    0.000   212    5    100.0   10 
 5/19/18  4:00p   58.0   58.1   57.9    83   52.9   4.0    NE   0.67  11.0    NE   58.0   57.9   57.9   62.4  30.043  0.00  0.00   247     3.54    255     0.0  0.00   0.0   0.049   0.000   71.8    52   53.2   71.0   9.61  .0740    0.008   210    5    100.0   10 
 5/19/18  4:10p   57.9   58.0   57.8    83   52.8   7.0    NE   1.17  11.0   ENE   56.7   57.8   56.6   61.2  30.036  0.03  3.25   248     3.56    267     0.0  0.00   0.0   0.049   0.000   71.9    52   53.3   71.1   9.61  .0739    0.000   212    5    100.0   10 
 5/19/18  4:20p   57.7   57.9   57.6    84   52.9   9.0    NE   1.50  13.0    NE   54.9   57.6   54.8   60.6  30.032  0.00  0.05   318     4.56    373     0.0  0.00   0.0   0.051   0.000   72.0    52   53.4   71.3   9.61  .0739    0.000   214    5    100.0   10 
 5/19/18  4:30p   57.8   57.8   57.6    83   52.7  10.0    NE   1.67  13.0   NNE   54.4   57.7   54.3   60.6  30.027  0.00  0.00   347     4.97    367     0.0  0.00   0.0   0.050   0.000   72.1    52   53.5   71.4   9.61  .0739    0.000   210    5    100.0   10 
 5/19/18  4:40p   57.7   57.8   57.7    84   52.9  10.0   NNE   1.67  13.0   NNE   54.3   57.6   54.2   60.1  30.023  0.00  0.00   316     4.53    334     0.0  0.00   0.0   0.051   0.000   72.2    52   53.6   71.5   9.61  .0738    0.000   210    5    100.0   10 
 5/19/18  4:50p   58.0   58.0   57.7    84   53.2   9.0    NE   1.50  12.0   NNE   55.3   57.9   55.2   61.5  30.021  0.00  0.00   315     4.52    362     0.0  0.00   0.0   0.049   0.000   72.2    52   53.6   71.5   9.61  .0738    0.000   212    5    100.0   10 
 5/19/18  5:00p   57.8   58.1   57.7    84   53.0   9.0    NE   1.50  13.0    NE   55.1   57.7   55.0   59.1  30.024  0.00  0.00   215     3.08    258     0.0  0.00   0.0   0.050   0.000   72.3    52   53.7   71.7   9.60  .0738    0.007   211    5    100.0   10 
 5/19/18  5:10p   57.3   57.8   57.3    84   52.5  10.0    NE   1.67  14.0    NE   53.8   57.2   53.7   57.2  30.025  0.00  0.00   189     2.71    220     0.0  0.00   0.0   0.053   0.000   72.3    52   53.7   71.7   9.60  .0738    0.000   212    5    100.0   10 
 5/19/18  5:20p   57.2   57.2   57.2    85   52.7   9.0   NNE   1.50  13.0   NNE   54.3   57.1   54.2   57.8  30.024  0.00  0.00   180     2.58    202     0.0  0.00   0.0   0.054   0.000   72.3    52   53.7   71.7   9.60  .0738    0.000   211    5    100.0   10 
 5/19/18  5:30p   57.3   57.3   57.2    85   52.8   8.0    NE   1.33  12.0    NE   55.3   57.2   55.2   58.1  30.022  0.00  0.00   149     2.14    163     0.0  0.00   0.0   0.053   0.000   72.4    52   53.8   71.8   9.60  .0738    0.000   213    5    100.0   10 
 5/19/18  5:40p   57.0   57.3   56.9    85   52.5   9.0    NE   1.50  13.0    NE   54.1   56.9   54.0   57.4  30.025  0.00  0.00   162     2.32    174     0.0  0.00   0.0   0.056   0.000   72.4    52   53.8   71.8   9.60  .0738    0.000   212    5    100.0   10 
 5/19/18  5:50p   57.3   57.3   57.0    85   52.8   7.0    NE   1.17  12.0    NE   56.0   57.2   55.9   59.1  30.025  0.00  0.00   142     2.04    158     0.0  0.00   0.0   0.053   0.000   72.4    52   53.8   71.8   9.60  .0738    0.000   211    5    100.0   10 
 5/19/18  6:00p   57.2   57.3   57.2    85   52.7   8.0    NE   1.33  13.0   NNE   55.1   57.1   55.0   58.7  30.024  0.00  0.00   159     2.28    169     0.0  0.00   0.0   0.054   0.000   72.5    52   53.9   72.0   9.60  .0738    0.004   213    5    100.0   10 
 5/19/18  6:10p   56.9   57.2   56.9    85   52.4   9.0    NE   1.50  13.0   NNE   54.0   56.8   53.9   56.8  30.024  0.00  0.00   134     1.92    160     0.0  0.00   0.0   0.056   0.000   72.5    52   53.9   72.0   9.60  .0738    0.000   213    5    100.0   10 
 5/19/18  6:20p   56.8   56.9   56.8    85   52.3   8.0    NE   1.33  12.0    NE   54.7   56.7   54.6   56.4  30.022  0.00  0.00    94     1.35    102     0.0  0.00   0.0   0.057   0.000   72.5    52   53.9   72.0   9.60  .0738    0.000   213    5    100.0   10 
 5/19/18  6:30p   56.6   56.8   56.6    85   52.1  10.0    NE   1.67  13.0    NE   53.0   56.5   52.9   56.2  30.021  0.00  0.00   141     2.02    148     0.0  0.00   0.0   0.058   0.000   72.5    52   53.9   72.0   9.60  .0738    0.000   212    5    100.0   10 
 5/19/18  6:40p   56.8   56.8   56.6    86   52.7  10.0    NE   1.67  13.0    NE   53.3   56.7   53.2   56.9  30.019  0.00  0.00   151     2.16    167     0.0  0.00   0.0   0.057   0.000   72.5    52   53.9   72.0   9.60  .0738    0.000   214    5    100.0   10 
 5/19/18  6:50p   56.8   56.9   56.7    86   52.7   9.0    NE   1.50  13.0   NNE   53.9   56.7   53.8   57.6  30.017  0.00  0.00   150     2.15    185     0.0  0.00   0.0   0.057   0.000   72.6    52   54.0   72.1   9.60  .0738    0.000   212    5    100.0   10 
 5/19/18  7:00p   56.7   56.8   56.7    86   52.6   9.0    NE   1.50  13.0   NNE   53.8   56.6   53.7   57.2  30.019  0.00  0.00   141     2.02    160     0.0  0.00   0.0   0.058   0.000   72.6    52   54.0   72.1   9.60  .0738    0.004   213    5    100.0   10 
 5/19/18  7:10p   56.5   56.7   56.5    86   52.4   9.0    NE   1.50  13.0   NNE   53.6   56.4   53.5   55.8  30.017  0.00  0.00   105     1.51    123     0.0  0.00   0.0   0.059   0.000   72.6    52   54.0   72.1   9.60  .0738    0.000   213    5    100.0   10 
 5/19/18  7:20p   56.4   56.5   56.4    86   52.3   9.0    NE   1.50  13.0    NE   53.4   56.3   53.3   52.3  30.017  0.00  0.00    78     1.12     95     0.0  0.00   0.0   0.060   0.000   72.6    52   54.0   72.1   9.60  .0738    0.000   213    5    100.0   10 
 5/19/18  7:30p   56.3   56.4   56.3    86   52.2   8.0   NNE   1.33  11.0    NE   54.1   56.2   54.0   52.7  30.018  0.00  0.00    64     0.92     74     0.0  0.00   0.0   0.060   0.000   72.6    52   54.0   72.1   9.60  .0738    0.000   212    5    100.0   10 
 5/19/18  7:40p   56.2   56.4   56.2    86   52.1   6.0    NE   1.00  11.0   NNE   55.0   56.1   54.9   53.3  30.018  0.00  0.00    54     0.77     72     0.0  0.00   0.0   0.061   0.000   72.6    52   54.0   72.1   9.60  .0738    0.000   210    5    100.0   10 
 5/19/18  7:50p   56.2   56.2   56.2    86   52.1   5.0    NE   0.83  10.0    NE   55.5   56.1   55.4   53.4  30.017  0.00  0.00    37     0.53     42     0.0  0.00   0.0   0.061   0.000   72.5    52   53.9   72.0   9.60  .0738    0.000   213    5    100.0   10 
 5/19/18  8:00p   56.0   56.2   55.9    86   51.9   5.0    NE   0.83  10.0   NNE   55.3   55.9   55.2   53.1  30.018  0.00  0.00    33     0.47     37     0.0  0.00   0.0   0.063   0.000   72.5    52   53.9   72.0   9.60  .0738    0.002   213    5    100.0   10 
 5/19/18  8:10p   55.9   56.0   55.9    87   52.1   5.0    NE   0.83   9.0    NE   55.2   55.9   55.2   52.9  30.022  0.00  0.00    21     0.30     25     0.0  0.00   0.0   0.063   0.000   72.5    52   53.9   72.0   9.60  .0738    0.000   214    5    100.0   10 
 5/19/18  8:20p   55.9   55.9   55.9    87   52.1   4.0    NE   0.67  10.0   NNE   55.7   55.9   55.7   53.2  30.025  0.00  0.00    13     0.19     14     0.0  0.00   0.0   0.063   0.000   72.5    52   53.9   72.0   9.60  .0738    0.000   213    5    100.0   10 
 5/19/18  8:30p   55.7   55.9   55.7    87   51.9   4.0    NE   0.67  10.0   NNE   55.4   55.7   55.4   52.7  30.023  0.00  0.00     8     0.11      9     0.0  0.00   0.0   0.065   0.000   72.5    52   53.9   72.0   9.60  .0738    0.000   211    5    100.0   10 
 5/19/18  8:40p   55.5   55.7   55.5    87   51.7   5.0    NE   0.83   9.0    NE   54.7   55.5   54.7   51.9  30.022  0.00  0.00     2     0.03      5     0.0  0.00   0.0   0.066   0.000   72.5    52   53.9   72.0   9.60  .0738    0.000   214    5    100.0   10 
 5/19/18  8:50p   55.5   55.6   55.5    87   51.7   4.0    NE   0.67   9.0   NNE   55.2   55.5   55.2   52.3  30.023  0.00  0.00     0     0.00      0     0.0  0.00   0.0   0.066   0.000   72.5    52   53.9   72.0   9.60  .0738    0.000   213    5    100.0   10 
 5/19/18  9:00p   55.4   55.5   55.3    87   51.6   4.0    NE   0.67   9.0    NE   55.1   55.4   55.1   52.2  30.025  0.00  0.00     0     0.00      0     0.0  0.00   0.0   0.067   0.000   72.4    52   53.8   71.8   9.60  .0738    0.001   213    5    100.0   10 
 5/19/18  9:10p   55.3   55.3   55.3    87   51.5   5.0   ENE   0.83   9.0     E   54.5   55.3   54.5   51.6  30.030  0.00  0.00     0     0.00      0     0.0  0.00   0.0   0.067   0.000   72.4    52   53.8   71.8   9.60  .0738    0.000   213    5    100.0   10 
 5/19/18  9:20p   55.2   55.3   55.2    88   51.7   4.0    NE   0.67  10.0   ENE   54.8   55.2   54.8   51.9  30.030  0.00  0.00     0     0.00      0     0.0  0.00   0.0   0.068   0.000   72.3    52   53.7   71.7   9.60  .0738    0.000   212    5    100.0   10 
 5/19/18  9:30p   55.0   55.2   55.0    88   51.5   4.0   ENE   0.67   9.0   ENE   54.6   55.0   54.6   51.7  30.034  0.00  0.00     0     0.00      0     0.0  0.00   0.0   0.069   0.000   72.3    52   53.7   71.7   9.60  .0738    0.000   210    5    100.0   10 
 5/19/18  9:40p   55.1   55.1   55.0    88   51.6   4.0    NE   0.67   7.0    NE   54.7   55.1   54.7   51.8  30.034  0.00  0.00     0     0.00      0     0.0  0.00   0.0   0.069   0.000   72.3    52   53.7   71.7   9.60  .0738    0.000   213    5    100.0   10 
 5/19/18  9:50p   55.1   55.1   55.1    88   51.6   3.0   ENE   0.50   7.0   ESE   55.1   55.1   55.1   52.2  30.037  0.00  0.00     0     0.00      0     0.0  0.00   0.0   0.069   0.000   72.3    52   53.7   71.7   9.60  .0739    0.000   212    5    100.0   10 
 5/19/18 10:00p   55.0   55.1   55.0    88   51.5   2.0   ENE   0.33   8.0   ENE   55.0   55.0   55.0   52.1  30.039  0.00  0.00     0     0.00      0     0.0  0.00   0.0   0.069   0.000   72.2    51   53.1   71.5   9.41  .0739    0.001   212    5    100.0   10 
 5/19/18 10:10p   54.8   55.0   54.8    88   51.3   2.0   ENE   0.33   8.0   ENE   54.8   54.8   54.8   51.9  30.043  0.00  0.00     0     0.00      0     0.0  0.00   0.0   0.071   0.000   72.2    51   53.1   71.5   9.41  .0739    0.000   213    5    100.0   10 
 5/19/18 10:20p   54.5   54.8   54.5    88   51.0   2.0   ENE   0.33   8.0   ENE   54.5   54.5   54.5   51.6  30.041  0.00  0.00     0     0.00      0     0.0  0.00   0.0   0.073   0.000   72.2    51   53.1   71.5   9.41  .0739    0.000   212    5    100.0   10 
 5/19/18 10:30p   54.4   54.6   54.4    88   50.9   2.0   ENE   0.33   5.0   NNE   54.4   54.4   54.4   51.5  30.042  0.00  0.00     0     0.00      0     0.0  0.00   0.0   0.074   0.000   72.2    51   53.1   71.5   9.41  .0739    0.000   212    5    100.0   10 
 5/19/18 10:40p   54.3   54.4   54.3    88   50.8   1.0   ENE   0.17   4.0   ENE   54.3   54.3   54.3   51.4  30.043  0.00  0.00     0     0.00      0     0.0  0.00   0.0   0.074   0.000   72.1    51   53.0   71.3   9.41  .0739    0.000   210    5    100.0   10 
 5/19/18 10:50p   54.2   54.3   54.2    88   50.7   1.0   ENE   0.17   5.0    NE   54.2   54.2   54.2   51.3  30.041  0.00  0.00     0     0.00      0     0.0  0.00   0.0   0.075   0.000   72.0    51   52.9   71.2   9.41  .0739    0.000   212    5    100.0   10 
 5/19/18 11:00p   54.1   54.2   54.1    88   50.6   1.0   ENE   0.17   4.0    NE   54.1   54.1   54.1   51.2  30.042  0.00  0.00     0     0.00      0     0.0  0.00   0.0   0.076   0.000   72.0    51   52.9   71.2   9.41  .0739    0.000   211    5    100.0   10 
 5/19/18 11:10p   54.0   54.1   54.0    88   50.5   1.0   ENE   0.17   4.0   ENE   54.0   54.0   54.0   51.1  30.043  0.00  0.00     0     0.00      0     0.0  0.00   0.0   0.076   0.000   72.0    51   52.9   71.2   9.41  .0739    0.000   211    5    100.0   10 
 5/19/18 11:20p   54.1   54.1   54.0    88   50.6   2.0   ENE   0.33   5.0    NE   54.1   54.1   54.1   51.2  30.043  0.00  0.00     0     0.00      0     0.0  0.00   0.0   0.076   0.000   72.0    51   52.9   71.2   9.41  .0739    0.000   209    5    100.0   10 
 5/19/18 11:30p   54.1   54.1   54.0    88   50.6   1.0   ENE   0.17   5.0    NE   54.1   54.1   54.1   51.2  30.043  0.00  0.00     0     0.00      0     0.0  0.00   0.0   0.076   0.000   71.9    51   52.8   71.0   9.41  .0740    0.000   212    5    100.0   10 
 5/19/18 11:40p   54.0   54.1   54.0    88   50.5   2.0     E   0.33   4.0   ENE   54.0   54.0   54.0   51.1  30.047  0.00  0.00     0     0.00      0     0.0  0.00   0.0   0.076   0.000   71.9    51   52.8   71.0   9.41  .0740    0.000   212    5    100.0   10 
 5/19/18 11:50p   53.9   54.0   53.9    88   50.4   1.0   ENE   0.17   4.0   ENE   53.9   53.9   53.9   51.0  30.047  0.00  0.00     0     0.00      0     0.0  0.00   0.0   0.077   0.000   71.8    51   52.7   70.9   9.41  .0740    0.000   212    5    100.0   10 
 5/20/18 12:00a   53.9   53.9   53.8    88   50.4   0.0   ENE   0.00   2.0   ENE   53.9   53.9   53.9   51.0  30.047  0.00  0.00     0     0.00      0     0.0  0.00   0.0   0.077   0.000   71.8    51   52.7   70.9   9.41  .0740    0.000   212    5    100.0   10 
 5/20/18 12:10a   53.9   53.9   53.9    88   50.4   1.0    NE   0.17   3.0   ENE   53.9   53.9   53.9   51.0  30.048  0.00  0.00     0     0.00      0     0.0  0.00   0.0   0.077   0.000   71.8    51   52.7   70.9   9.41  .0740    0.000   138    5     66.7   10 
 5/20/18 12:20a   54.0   54.0   53.9    88   50.5   1.0   ENE   0.17   2.0   ENE   54.0   54.0   54.0   51.1  30.049  0.00  0.00     0     0.00      0     0.0  0.00   0.0   0.076   0.000   71.7    51   52.6   70.7   9.42  .0740    0.000   213    5    100.0   10 
 5/20/18 12:30a   54.0   54.0   54.0    88   50.5   1.0   ENE   0.17   3.0   ENE   54.0   54.0   54.0   51.1  30.048  0.00  0.00     0     0.00      0     0.0  0.00   0.0   0.076   0.000   71.7    51   52.6   70.7   9.42  .0740    0.000   211    5    100.0   10 
 5/20/18 12:40a   54.0   54.1   54.0    88   50.5   1.0   ENE   0.17   2.0   ENE   54.0   54.0   54.0   51.1  30.048  0.00  0.00     0     0.00      0     0.0  0.00   0.0   0.076   0.000   71.6    51   52.5   70.6   9.42  .0740    0.000   211    5    100.0   10 
 5/20/18 12:50a   54.0   54.0   54.0    88   50.5   0.0   ENE   0.00   3.0   ENE   54.0   54.0   54.0   51.1  30.046  0.00  0.00     0     0.00      0     0.0  0.00   0.0   0.076   0.000   71.6    51   52.5   70.6   9.42  .0740    0.000   211    5    100.0   10 
 5/20/18  1:00a   53.9   54.0   53.9    88   50.4   0.0    NE   0.00   2.0     E   53.9   53.9   53.9   51.0  30.046  0.00  0.00     0     0.00      0     0.0  0.00   0.0   0.077   0.000   71.6    51   52.5   70.6   9.42  .0740    0.000   213    5    100.0   10 
 5/20/18  1:10a   53.9   53.9   53.9    88   50.4   0.0    NE   0.00   2.0    NE   53.9   53.9   53.9   51.0  30.047  0.00  0.00     0     0.00      0     0.0  0.00   0.0   0.077   0.000   71.5    51   52.4   70.4   9.42  .0740    0.000   213    5    100.0   10 
 5/20/18  1:20a   53.7   53.9   53.7    88   50.2   1.0    NE   0.17   2.0    NE   53.7   53.7   53.7   50.8  30.046  0.00  0.00     0     0.00      0     0.0  0.00   0.0   0.078   0.000   71.4    51   52.3   70.3   9.42  .0741    0.000   213    5    100.0   10 
 5/20/18  1:30a   53.6   53.7   53.6    87   49.8   0.0   ENE   0.00   2.0   ENE   53.6   53.6   53.6   50.6  30.047  0.00  0.00     0     0.00      0     0.0  0.00   0.0   0.079   0.000   71.5    51   52.4   70.4   9.42  .0740    0.000   213    5    100.0   10 
 5/20/18  1:40a   53.6   53.6   53.6    87   49.8   0.0   ENE   0.00   2.0   ENE   53.6   53.6   53.6   50.6  30.048  0.00  0.00     0     0.00      0     0.0  0.00   0.0   0.079   0.000   71.4    51   52.3   70.3   9.42  .0741    0.000   211    5    100.0   10 
 5/20/18  1:50a   53.6   53.6   53.6    87   49.8   0.0   ENE   0.00   2.0   ENE   53.6   53.6   53.6   50.6  30.044  0.00  0.00     0     0.00      0     0.0  0.00   0.0   0.079   0.000   71.3    51   52.2   70.1   9.42  .0741    0.000   212    5    100.0   10 
 5/20/18  2:00a   53.6   53.6   53.6    87   49.8   0.0   ---   0.00   0.0   ---   53.6   53.6   53.6   50.6  30.045  0.00  0.00     0     0.00      0     0.0  0.00   0.0   0.079   0.000   71.3    51   52.2   70.1   9.42  .0741    0.000   213    5    100.0   10 
 5/20/18  2:10a   53.7   53.7   53.6    87   49.9   0.0   ---   0.00   0.0   ---   53.7   53.7   53.7   50.7  30.046  0.00  0.00     0     0.00      0     0.0  0.00   0.0   0.078   0.000   71.3    51   52.2   70.1   9.42  .0741    0.000   211    5    100.0   10 
 5/20/18  2:20a   53.8   53.8   53.7    87   50.0   0.0   ---   0.00   0.0   ---   53.8   53.8   53.8   50.9  30.042  0.00  0.00     0     0.00      0     0.0  0.00   0.0   0.078   0.000   71.3    51   52.2   70.1   9.42  .0741    0.000   211    5    100.0   10 
Email: AdamSPAM@StormwatchersRetreat.com (To send me email remove the word 'SPAM' from my email address.)